Time;durP1;ratioP1;P1;durP2;ratioP2;P2;SDS_P1;SDS_P2;PMS_P1;PMS_P2;Temp;Humidity;BMP_temperature;BMP_pressure;BME280_temperature;BME280_humidity;BME280_pressure;Samples;Min_cycle;Max_cycle;Signal;HPM_P1;HPM_P2
2024/01/05 00:00:36;;;;;;;7.13;4.50;;;;;;;8.76;100.00;99461.25;5076113;28;20050;-64
2024/01/05 00:03:02;;;;;;;5.88;3.78;;;;;;;8.69;100.00;99462.84;5073825;28;20119;-64
2024/01/05 00:05:28;;;;;;;8.55;3.95;;;;;;;8.69;100.00;99469.94;5076241;28;20318;-63
2024/01/05 00:07:53;;;;;;;7.07;3.88;;;;;;;8.67;100.00;99464.81;5075032;28;20362;-65
2024/01/05 00:10:19;;;;;;;8.13;3.67;;;;;;;8.68;100.00;99470.94;5075208;28;20036;-66
2024/01/05 00:12:45;;;;;;;7.75;4.00;;;;;;;8.60;100.00;99477.81;5072898;28;20059;-64
2024/01/05 00:15:13;;;;;;;5.32;3.30;;;;;;;8.58;100.00;99481.59;5076011;28;20118;-63
2024/01/05 00:17:39;;;;;;;4.32;3.10;;;;;;;8.56;100.00;99499.38;5075258;28;20237;-64
2024/01/05 00:20:07;;;;;;;5.20;2.88;;;;;;;8.58;100.00;99500.06;5074965;28;20107;-64
2024/01/05 00:22:33;;;;;;;4.53;3.10;;;;;;;8.60;100.00;99511.28;5075185;28;20096;-64
2024/01/05 00:24:58;;;;;;;5.15;3.60;;;;;;;8.64;100.00;99510.81;5075234;28;20350;-64
2024/01/05 00:27:24;;;;;;;5.22;2.90;;;;;;;8.70;99.96;99514.66;5075466;28;20040;-66
2024/01/05 00:29:49;;;;;;;4.90;3.15;;;;;;;8.78;99.29;99519.97;5073510;28;20106;-65
2024/01/05 00:32:16;;;;;;;3.35;2.17;;;;;;;8.82;98.96;99517.84;5076145;28;20068;-64
2024/01/05 00:34:41;;;;;;;2.97;2.30;;;;;;;8.89;98.22;99511.78;5073449;28;20032;-64
2024/01/05 00:37:07;;;;;;;2.90;2.15;;;;;;;9.01;97.84;99516.81;5075678;28;20052;-63
2024/01/05 00:39:33;;;;;;;3.90;2.20;;;;;;;9.02;97.15;99510.53;5073512;28;20059;-66
2024/01/05 00:42:01;;;;;;;2.30;1.83;;;;;;;9.02;96.99;99513.19;5075720;28;20051;-65
2024/01/05 00:44:27;;;;;;;2.20;1.85;;;;;;;9.06;96.67;99503.97;5074648;28;20066;-64
2024/01/05 00:46:53;;;;;;;2.83;1.73;;;;;;;9.08;95.98;99508.09;5075362;28;20032;-64
2024/01/05 00:49:18;;;;;;;2.45;1.80;;;;;;;9.18;96.07;99513.25;5074653;28;20059;-64
2024/01/05 00:51:44;;;;;;;4.00;1.90;;;;;;;9.20;96.09;99511.28;5075546;28;20326;-64
2024/01/05 00:54:09;;;;;;;3.97;2.13;;;;;;;9.21;95.96;99511.13;5074558;28;20088;-65
2024/01/05 00:56:35;;;;;;;3.63;2.50;;;;;;;9.28;95.71;99520.06;5074423;28;20333;-66
2024/01/05 00:59:00;;;;;;;4.82;2.40;;;;;;;9.24;95.04;99518.72;5073172;28;20028;-64
2024/01/05 01:01:26;;;;;;;2.53;1.77;;;;;;;9.18;94.92;99518.53;5073922;28;20067;-63
2024/01/05 01:03:51;;;;;;;4.55;2.95;;;;;;;9.18;95.02;99515.91;5073359;28;20369;-64
2024/01/05 01:06:17;;;;;;;3.20;2.25;;;;;;;9.20;94.87;99517.41;5075527;28;20033;-66
2024/01/05 01:08:42;;;;;;;2.65;2.40;;;;;;;9.25;94.64;99519.56;5074813;28;20044;-65
2024/01/05 01:11:17;;;;;;;3.08;2.20;;;;;;;9.19;94.27;99523.66;5074026;28;20441;-65
2024/01/05 01:13:44;;;;;;;2.22;2.03;;;;;;;9.17;94.94;99516.88;5076089;28;20043;-64
2024/01/05 01:16:11;;;;;;;3.13;2.28;;;;;;;9.16;94.33;99517.88;5071067;28;20318;-64
2024/01/05 01:18:37;;;;;;;2.28;1.95;;;;;;;9.13;94.18;99520.81;5075448;28;20773;-64
2024/01/05 01:21:03;;;;;;;4.38;2.60;;;;;;;9.11;94.23;99526.28;5074123;28;20036;-64
2024/01/05 01:23:28;;;;;;;3.58;2.17;;;;;;;9.07;94.77;99524.09;5076714;28;20044;-65
2024/01/05 01:25:54;;;;;;;2.30;1.90;;;;;;;9.04;95.23;99527.06;5077668;28;20107;-65
2024/01/05 01:28:19;;;;;;;3.33;1.83;;;;;;;9.09;95.59;99532.69;5077794;28;20064;-63
2024/01/05 01:30:45;;;;;;;2.42;2.20;;;;;;;9.12;95.28;99529.75;5077556;28;20028;-64
2024/01/05 01:33:10;;;;;;;3.80;2.47;;;;;;;9.10;95.46;99534.34;5077789;28;20277;-63
2024/01/05 01:35:36;;;;;;;3.28;2.28;;;;;;;9.08;94.72;99531.03;5078269;28;20349;-66
2024/01/05 01:38:01;;;;;;;2.13;1.77;;;;;;;9.05;95.20;99532.19;5078161;28;20032;-66
2024/01/05 01:40:27;;;;;;;4.78;2.20;;;;;;;8.99;95.29;99539.91;5078122;28;20306;-64
2024/01/05 01:42:53;;;;;;;5.03;2.58;;;;;;;8.92;95.39;99537.88;5077520;28;20047;-63
2024/01/05 01:45:18;;;;;;;5.95;2.63;;;;;;;8.95;95.40;99545.50;5079077;28;20054;-64
2024/01/05 01:47:45;;;;;;;4.60;2.65;;;;;;;8.95;95.11;99542.84;5075824;28;20064;-63
2024/01/05 01:50:12;;;;;;;4.40;2.45;;;;;;;8.94;95.04;99543.84;5079244;28;20055;-64
2024/01/05 01:52:39;;;;;;;3.72;2.15;;;;;;;8.91;95.21;99551.25;5076908;28;20043;-65
2024/01/05 01:55:06;;;;;;;5.90;2.65;;;;;;;8.88;95.26;99547.09;5079092;28;20913;-64
2024/01/05 01:57:33;;;;;;;3.28;2.08;;;;;;;8.88;95.50;99552.38;5077790;28;20086;-64
2024/01/05 01:59:59;;;;;;;4.03;2.28;;;;;;;8.88;95.81;99548.91;5078310;28;20055;-64
2024/01/05 02:02:26;;;;;;;3.35;2.08;;;;;;;8.87;95.84;99548.09;5076818;28;20044;-65
2024/01/05 02:04:52;;;;;;;3.63;2.20;;;;;;;8.93;95.78;99536.06;5077924;28;20106;-65
2024/01/05 02:07:18;;;;;;;3.67;2.30;;;;;;;8.98;95.12;99533.78;5077917;28;20230;-65
2024/01/05 02:09:43;;;;;;;3.85;2.45;;;;;;;9.05;94.66;99545.38;5077288;28;20043;-64
2024/01/05 02:12:09;;;;;;;4.78;2.47;;;;;;;9.04;94.32;99546.38;5076285;28;20334;-64
2024/01/05 02:14:34;;;;;;;3.92;2.72;;;;;;;9.05;93.95;99545.38;5074736;28;20047;-64
2024/01/05 02:17:00;;;;;;;3.42;2.38;;;;;;;9.05;93.20;99550.66;5073422;28;20058;-66
2024/01/05 02:19:25;;;;;;;3.40;2.78;;;;;;;8.98;92.91;99548.81;5072552;28;20348;-66
2024/01/05 02:21:54;;;;;;;3.75;2.38;;;;;;;8.96;92.64;99556.88;5073717;28;20337;-65
2024/01/05 02:24:20;;;;;;;2.42;1.90;;;;;;;8.92;92.26;99556.38;5069675;28;20234;-64
2024/01/05 02:26:46;;;;;;;3.17;2.42;;;;;;;8.95;92.29;99553.41;5069136;28;20036;-64
2024/01/05 02:29:13;;;;;;;5.30;2.80;;;;;;;9.07;91.31;99553.16;5072029;28;20043;-66
2024/01/05 02:31:39;;;;;;;7.43;3.13;;;;;;;9.12;90.14;99553.50;5077833;28;20333;-64
2024/01/05 02:34:05;;;;;;;3.13;2.20;;;;;;;9.13;89.68;99549.88;5074651;28;20060;-64
2024/01/05 02:36:30;;;;;;;2.90;2.30;;;;;;;9.12;89.41;99556.16;5076712;28;20033;-64
2024/01/05 02:38:56;;;;;;;3.50;2.20;;;;;;;9.05;88.93;99560.41;5076940;28;20036;-64
2024/01/05 02:41:21;;;;;;;3.38;1.92;;;;;;;8.82;89.91;99568.84;5077022;28;20028;-64
2024/01/05 02:43:47;;;;;;;6.97;3.58;;;;;;;9.03;89.12;99570.31;5077937;28;20060;-65
2024/01/05 02:46:12;;;;;;;12.65;5.03;;;;;;;9.14;88.07;99570.03;5077063;28;20340;-66
2024/01/05 02:48:38;;;;;;;19.83;7.80;;;;;;;9.11;87.69;99575.63;5077913;28;20226;-66
2024/01/05 02:51:03;;;;;;;7.45;3.20;;;;;;;9.00;88.46;99570.59;5076063;28;20036;-64
2024/01/05 02:53:29;;;;;;;9.90;5.72;;;;;;;8.86;88.84;99582.56;5077341;28;20041;-64
2024/01/05 02:55:55;;;;;;;5.78;3.47;;;;;;;8.91;88.67;99586.41;5074189;28;20028;-66
2024/01/05 02:58:20;;;;;;;4.22;2.58;;;;;;;8.74;89.17;99579.34;5076738;28;20045;-66
2024/01/05 03:00:46;;;;;;;3.45;2.13;;;;;;;8.85;88.64;99580.91;5074305;28;20543;-64
2024/01/05 03:03:11;;;;;;;3.97;1.95;;;;;;;8.86;88.14;99577.28;5076342;28;20067;-64
2024/01/05 03:05:38;;;;;;;3.15;2.00;;;;;;;8.89;88.37;99574.34;5074713;28;20934;-63
2024/01/05 03:08:04;;;;;;;2.88;2.08;;;;;;;8.95;88.11;99579.00;5076194;28;20024;-64
2024/01/05 03:10:30;;;;;;;2.92;2.03;;;;;;;8.95;87.68;99576.34;5074015;28;20025;-64
2024/01/05 03:12:55;;;;;;;5.40;1.95;;;;;;;9.07;87.44;99587.50;5075586;28;20108;-63
2024/01/05 03:15:21;;;;;;;3.15;1.88;;;;;;;9.10;87.09;99581.91;5071511;28;20299;-65
2024/01/05 03:17:47;;;;;;;3.75;2.55;;;;;;;9.09;86.79;99589.00;5073745;28;20041;-66
2024/01/05 03:20:14;;;;;;;4.18;2.28;;;;;;;9.10;86.60;99580.09;5076123;28;20032;-63
2024/01/05 03:22:40;;;;;;;3.03;2.60;;;;;;;8.80;88.01;99591.94;5076333;28;20044;-63
2024/01/05 03:25:06;;;;;;;4.72;2.42;;;;;;;8.81;88.05;99593.59;5077183;28;20234;-65
2024/01/05 03:27:31;;;;;;;3.10;1.73;;;;;;;8.71;88.75;99599.97;5073706;28;20345;-64
2024/01/05 03:29:57;;;;;;;2.58;2.03;;;;;;;8.43;89.59;99604.50;5077288;28;20103;-66
2024/01/05 03:32:22;;;;;;;4.38;1.77;;;;;;;8.30;90.63;99612.75;5074192;28;20051;-65
2024/01/05 03:34:48;;;;;;;2.67;1.90;;;;;;;8.32;91.21;99616.06;5076339;28;20232;-65
2024/01/05 03:37:14;;;;;;;3.33;2.42;;;;;;;8.35;90.04;99633.47;5074275;28;20103;-64
2024/01/05 03:39:39;;;;;;;4.90;3.20;;;;;;;8.30;90.62;99631.22;5075743;28;20359;-64
2024/01/05 03:42:05;;;;;;;3.95;3.15;;;;;;;8.28;90.90;99638.44;5074122;28;20042;-65
2024/01/05 03:44:30;;;;;;;3.22;2.10;;;;;;;8.50;89.75;99635.41;5075195;28;20382;-64
2024/01/05 03:46:56;;;;;;;1.90;1.70;;;;;;;8.70;88.46;99643.19;5074218;28;20064;-64
2024/01/05 03:49:22;;;;;;;3.75;1.95;;;;;;;8.77;87.28;99647.69;5075338;28;20052;-66
2024/01/05 03:51:47;;;;;;;3.15;1.50;;;;;;;8.56;88.25;99650.66;5075110;28;20078;-63
2024/01/05 03:54:13;;;;;;;2.60;2.03;;;;;;;8.53;88.17;99644.84;5075656;28;20277;-61
2024/01/05 03:56:46;;;;;;;2.20;1.67;;;;;;;8.62;88.42;99657.13;5075183;28;20096;-62
2024/01/05 03:59:12;;;;;;;2.13;1.30;;;;;;;8.44;88.21;99656.31;5075452;28;20366;-62
2024/01/05 04:01:47;;;;;;;3.53;1.50;;;;;;;8.43;88.30;99657.28;5076101;28;20046;-66
2024/01/05 04:04:14;;;;;;;2.05;1.60;;;;;;;8.48;88.28;99668.22;5075081;28;20414;-63
2024/01/05 04:06:40;;;;;;;1.90;1.70;;;;;;;8.46;87.30;99675.44;5076623;28;20063;-64
2024/01/05 04:09:09;;;;;;;3.08;1.80;;;;;;;8.56;87.10;99681.50;5073770;28;20036;-63
2024/01/05 04:11:38;;;;;;;2.80;2.60;;;;;;;8.65;85.97;99685.88;5076993;28;20043;-63
2024/01/05 04:14:04;;;;;;;4.90;2.55;;;;;;;8.74;85.86;99690.22;5074052;28;20054;-64
2024/01/05 04:16:30;;;;;;;2.80;2.08;;;;;;;8.80;85.04;99689.63;5076278;28;20032;-65
2024/01/05 04:18:56;;;;;;;6.13;2.40;;;;;;;8.94;84.04;99691.72;5074200;28;20154;-65
2024/01/05 04:21:21;;;;;;;3.45;2.15;;;;;;;8.93;83.88;99694.53;5075641;28;20092;-64
2024/01/05 04:23:47;;;;;;;3.45;1.70;;;;;;;8.96;83.54;99702.13;5074163;28;20049;-63
2024/01/05 04:26:13;;;;;;;2.38;1.70;;;;;;;8.93;83.38;99703.28;5075294;28;20036;-63
2024/01/05 04:28:38;;;;;;;1.80;1.60;;;;;;;8.92;83.85;99712.19;5074497;28;20239;-65
2024/01/05 04:31:04;;;;;;;2.65;2.15;;;;;;;8.95;83.69;99711.03;5075194;28;20031;-64
2024/01/05 04:33:30;;;;;;;4.32;2.78;;;;;;;9.01;83.46;99712.25;5075553;28;20056;-64
2024/01/05 04:35:55;;;;;;;3.83;2.80;;;;;;;9.08;83.56;99716.75;5075590;28;20054;-63
2024/01/05 04:38:21;;;;;;;9.27;3.97;;;;;;;9.11;82.73;99721.75;5076425;28;20039;-65
2024/01/05 04:40:46;;;;;;;7.30;3.55;;;;;;;9.12;83.12;99727.84;5075322;28;20056;-65
2024/01/05 04:43:12;;;;;;;4.35;2.97;;;;;;;9.14;82.33;99734.63;5076411;28;20043;-64
2024/01/05 04:45:37;;;;;;;6.75;2.45;;;;;;;9.00;84.09;99737.81;5073335;28;20368;-63
2024/01/05 04:48:03;;;;;;;7.50;3.95;;;;;;;8.93;83.57;99745.53;5076729;28;20238;-64
2024/01/05 04:50:29;;;;;;;10.55;5.38;;;;;;;8.78;83.61;99748.84;5075498;28;20036;-65
2024/01/05 04:52:54;;;;;;;8.93;4.50;;;;;;;8.52;84.88;99746.94;5076838;28;20040;-65
2024/01/05 04:55:20;;;;;;;5.00;4.00;;;;;;;8.72;84.93;99757.38;5075147;28;20029;-64
2024/01/05 04:57:46;;;;;;;3.58;3.15;;;;;;;8.88;83.46;99757.53;5077230;28;20270;-64
2024/01/05 05:00:12;;;;;;;4.00;2.65;;;;;;;8.86;83.33;99754.19;5079813;28;20350;-64
2024/01/05 05:02:37;;;;;;;3.67;2.33;;;;;;;8.93;82.63;99747.34;5079157;28;20045;-64
2024/01/05 05:05:03;;;;;;;6.88;2.38;;;;;;;8.92;82.38;99758.88;5080681;28;20069;-63
2024/01/05 05:07:28;;;;;;;1.98;1.77;;;;;;;8.79;82.91;99763.69;5079048;28;20046;-64
2024/01/05 05:09:54;;;;;;;5.28;2.05;;;;;;;8.84;82.19;99769.38;5080725;28;20081;-65
2024/01/05 05:12:19;;;;;;;3.55;2.00;;;;;;;8.87;82.28;99769.91;5078763;28;20063;-64
2024/01/05 05:14:45;;;;;;;3.10;1.85;;;;;;;8.85;81.91;99781.59;5079754;28;20330;-63
2024/01/05 05:17:11;;;;;;;2.60;1.80;;;;;;;8.90;81.74;99784.59;5078378;28;20036;-63
2024/01/05 05:19:36;;;;;;;2.55;1.58;;;;;;;8.97;81.63;99783.03;5078974;28;20059;-63
2024/01/05 05:22:02;;;;;;;2.85;1.80;;;;;;;8.95;81.65;99785.81;5076988;28;20284;-64
2024/01/05 05:24:28;;;;;;;2.78;1.85;;;;;;;8.89;81.25;99785.59;5078698;28;20054;-63
2024/01/05 05:26:53;;;;;;;3.03;2.42;;;;;;;8.91;81.62;99788.91;5078617;28;20043;-64
2024/01/05 05:29:19;;;;;;;17.02;8.02;;;;;;;8.96;81.13;99795.41;5078942;28;20062;-63
2024/01/05 05:31:44;;;;;;;5.95;3.70;;;;;;;8.92;80.76;99804.59;5078828;28;20098;-63
2024/01/05 05:34:10;;;;;;;6.25;5.75;;;;;;;8.80;81.58;99800.53;5078736;28;20037;-65
2024/01/05 05:36:35;;;;;;;6.15;5.55;;;;;;;8.83;81.30;99794.09;5079420;28;20208;-64
2024/01/05 05:39:01;;;;;;;5.28;4.78;;;;;;;8.85;81.01;99795.63;5076607;28;20327;-63
2024/01/05 05:41:26;;;;;;;8.13;5.18;;;;;;;8.88;80.58;99805.06;5079603;28;20066;-63
2024/01/05 05:43:52;;;;;;;5.32;4.80;;;;;;;8.88;80.74;99803.25;5076551;28;20051;-63
2024/01/05 05:46:18;;;;;;;5.70;3.67;;;;;;;8.91;80.48;99815.31;5079629;28;20062;-64
2024/01/05 05:48:43;;;;;;;5.68;4.40;;;;;;;8.91;80.32;99820.59;5078115;28;20269;-62
2024/01/05 05:51:11;;;;;;;8.30;4.88;;;;;;;8.96;80.13;99828.91;5074213;28;20032;-64
2024/01/05 05:53:36;;;;;;;7.00;5.85;;;;;;;8.83;80.65;99821.34;5079455;28;20040;-65
2024/01/05 05:56:02;;;;;;;11.30;7.90;;;;;;;8.88;80.89;99821.72;5076849;28;20199;-65
2024/01/05 05:58:27;;;;;;;15.52;7.97;;;;;;;8.77;81.16;99823.75;5073807;28;20036;-63
2024/01/05 06:00:53;;;;;;;19.52;9.98;;;;;;;8.82;81.13;99830.25;5078561;28;20246;-63
2024/01/05 06:03:19;;;;;;;22.83;12.02;;;;;;;8.87;81.04;99827.16;5076882;28;20295;-64
2024/01/05 06:05:44;;;;;;;19.67;9.70;;;;;;;8.91;81.05;99839.06;5077106;28;20036;-65
2024/01/05 06:08:10;;;;;;;10.88;6.50;;;;;;;8.95;80.82;99841.28;5077710;28;20051;-64
2024/01/05 06:10:36;;;;;;;9.25;5.68;;;;;;;8.96;80.32;99840.28;5076325;28;20028;-63
2024/01/05 06:13:02;;;;;;;8.82;5.70;;;;;;;8.98;80.40;99841.94;5076273;28;21445;-64
2024/01/05 06:15:28;;;;;;;9.85;4.78;;;;;;;8.67;81.45;99846.72;5077521;28;20215;-63
2024/01/05 06:17:53;;;;;;;7.28;4.97;;;;;;;8.66;82.48;99842.44;5078548;28;20028;-65
2024/01/05 06:20:19;;;;;;;11.10;6.55;;;;;;;8.79;82.14;99850.81;5075404;28;20549;-63
2024/01/05 06:22:44;;;;;;;10.80;6.68;;;;;;;8.88;81.76;99848.13;5078226;28;20037;-63
2024/01/05 06:25:09;;;;;;;13.05;7.53;;;;;;;8.85;81.36;99861.63;5075607;28;20037;-64
2024/01/05 06:27:35;;;;;;;16.92;9.30;;;;;;;8.74;82.27;99867.13;5077996;28;20032;-63
2024/01/05 06:30:00;;;;;;;15.27;8.50;;;;;;;8.87;81.76;99864.13;5076421;28;20042;-64
2024/01/05 06:32:26;;;;;;;11.82;7.18;;;;;;;8.89;81.12;99867.44;5077227;28;20250;-63
2024/01/05 06:34:51;;;;;;;12.35;6.82;;;;;;;8.76;81.76;99873.06;5077191;28;20040;-65
2024/01/05 06:37:17;;;;;;;11.10;6.18;;;;;;;8.69;81.90;99869.38;5077846;28;20036;-66
2024/01/05 06:39:42;;;;;;;9.25;5.40;;;;;;;8.81;81.58;99880.56;5078131;28;20033;-63
2024/01/05 06:42:08;;;;;;;9.18;5.38;;;;;;;8.90;80.93;99884.94;5076975;28;20036;-63
2024/01/05 06:44:33;;;;;;;5.75;3.15;;;;;;;8.91;81.20;99876.06;5076731;28;20227;-63
2024/01/05 06:46:59;;;;;;;6.60;3.45;;;;;;;8.85;81.54;99882.75;5076660;28;20040;-65
2024/01/05 06:49:25;;;;;;;8.45;4.97;;;;;;;8.83;81.61;99886.53;5077120;28;20073;-63
2024/01/05 06:51:50;;;;;;;10.63;5.90;;;;;;;8.86;81.17;99894.97;5077484;28;20032;-63
2024/01/05 06:54:17;;;;;;;7.63;5.00;;;;;;;8.84;80.56;99898.75;5077538;28;20059;-63
2024/01/05 06:56:42;;;;;;;8.27;5.40;;;;;;;8.83;80.45;99899.72;5076266;28;20028;-62
2024/01/05 06:59:09;;;;;;;8.82;5.25;;;;;;;8.87;80.71;99901.91;5078453;28;20314;-63
2024/01/05 07:01:34;;;;;;;8.93;5.20;;;;;;;9.04;79.86;99899.47;5076634;28;20287;-64
2024/01/05 07:04:00;;;;;;;7.70;4.00;;;;;;;9.33;79.35;99907.19;5078387;28;20054;-64
2024/01/05 07:06:26;;;;;;;6.75;3.90;;;;;;;9.59;78.76;99911.63;5074627;28;20269;-63
2024/01/05 07:08:52;;;;;;;7.30;4.07;;;;;;;9.83;78.56;99912.81;5076897;28;20040;-64
2024/01/05 07:11:24;;;;;;;8.85;4.28;;;;;;;10.07;76.92;99910.34;5076194;28;20032;-63
2024/01/05 07:13:50;;;;;;;14.35;6.13;;;;;;;10.27;76.25;99916.28;5076739;28;20044;-65
2024/01/05 07:16:22;;;;;;;6.80;3.88;;;;;;;10.42;77.82;99917.41;5075399;28;20270;-65
2024/01/05 07:18:48;;;;;;;8.30;4.40;;;;;;;10.44;76.43;99911.97;5075427;28;20029;-63
2024/01/05 07:21:18;;;;;;;8.82;4.88;;;;;;;10.51;76.18;99911.16;5075601;28;20051;-63
2024/01/05 07:23:43;;;;;;;8.20;5.45;;;;;;;10.74;75.70;99913.25;5075823;28;20055;-63
2024/01/05 07:26:09;;;;;;;8.18;5.97;;;;;;;10.95;74.76;99915.50;5074612;28;20296;-63
2024/01/05 07:28:36;;;;;;;8.70;6.10;;;;;;;10.58;74.84;99915.84;5074832;28;20035;-63
2024/01/05 07:31:05;;;;;;;11.23;6.57;;;;;;;10.37;76.44;99914.38;5075675;28;20178;-63
2024/01/05 07:33:33;;;;;;;11.48;7.30;;;;;;;10.64;75.95;99926.63;5076366;28;20048;-65
2024/01/05 07:36:05;;;;;;;13.32;7.05;;;;;;;10.75;76.06;99930.81;5074803;28;20123;-65
2024/01/05 07:38:36;;;;;;;13.85;7.85;;;;;;;10.65;77.61;99935.41;5074107;28;20032;-63
2024/01/05 07:41:02;;;;;;;9.88;5.20;;;;;;;10.65;76.10;99925.63;5074955;28;20041;-63
2024/01/05 07:43:29;;;;;;;15.60;6.68;;;;;;;10.73;78.66;99936.28;5074137;28;20040;-63
2024/01/05 07:45:55;;;;;;;8.68;4.88;;;;;;;10.20;79.55;99939.91;5075557;28;20044;-63
2024/01/05 07:48:21;;;;;;;9.35;4.28;;;;;;;9.89;81.14;99931.53;5074767;28;20349;-65
2024/01/05 07:50:47;;;;;;;7.38;4.20;;;;;;;10.11;81.72;99942.59;5075839;28;20082;-64
2024/01/05 07:53:13;;;;;;;9.18;4.05;;;;;;;10.15;79.96;99951.91;5075721;28;20032;-62
2024/01/05 07:55:38;;;;;;;9.52;4.80;;;;;;;10.52;79.49;99949.91;5076542;28;20036;-63
2024/01/05 07:58:04;;;;;;;8.10;4.40;;;;;;;10.81;75.91;99949.56;5075934;28;20036;-63
2024/01/05 08:00:31;;;;;;;7.22;3.60;;;;;;;10.98;76.89;99942.50;5075668;28;20309;-63
2024/01/05 08:02:58;;;;;;;8.77;5.07;;;;;;;11.26;76.22;99943.09;5075272;28;20090;-63
2024/01/05 08:05:24;;;;;;;7.45;4.32;;;;;;;11.56;74.63;99939.03;5076214;28;20323;-64
2024/01/05 08:07:49;;;;;;;6.57;3.97;;;;;;;11.81;73.49;99951.38;5074148;28;20095;-63
2024/01/05 08:10:15;;;;;;;6.05;3.95;;;;;;;11.96;72.93;99948.06;5074879;28;20036;-63
2024/01/05 08:12:40;;;;;;;6.43;3.78;;;;;;;12.11;73.51;99941.91;5075462;28;20342;-63
2024/01/05 08:15:06;;;;;;;8.30;4.25;;;;;;;12.29;73.41;99944.38;5075152;28;20055;-63
2024/01/05 08:17:32;;;;;;;9.93;4.05;;;;;;;12.41;73.47;99942.19;5074235;28;20036;-63
2024/01/05 08:19:57;;;;;;;8.45;3.97;;;;;;;12.55;74.06;99948.69;5073998;28;20070;-64
2024/01/05 08:22:25;;;;;;;6.53;4.00;;;;;;;12.65;74.29;99955.47;5074953;28;20047;-63
2024/01/05 08:24:50;;;;;;;4.97;3.85;;;;;;;12.75;73.96;99961.41;5074183;28;20099;-63
2024/01/05 08:27:16;;;;;;;9.77;5.13;;;;;;;12.74;72.96;99954.44;5074760;28;20060;-63
2024/01/05 08:29:42;;;;;;;5.45;3.70;;;;;;;12.72;73.07;99961.75;5072955;28;20038;-63
2024/01/05 08:32:07;;;;;;;6.53;4.57;;;;;;;12.62;71.50;99966.44;5072633;28;20032;-63
2024/01/05 08:34:33;;;;;;;8.63;4.15;;;;;;;12.58;71.05;99973.06;5077728;28;20105;-65
2024/01/05 08:36:58;;;;;;;6.20;3.65;;;;;;;12.60;73.47;99971.06;5078635;28;20033;-64
2024/01/05 08:39:24;;;;;;;6.28;2.83;;;;;;;12.29;67.88;99973.59;5078976;28;20032;-63
2024/01/05 08:41:49;;;;;;;7.10;3.45;;;;;;;12.58;69.19;99975.72;5079377;28;20345;-63
2024/01/05 08:44:15;;;;;;;5.53;3.05;;;;;;;12.83;68.56;99973.84;5079261;28;20044;-64
2024/01/05 08:46:41;;;;;;;7.55;3.30;;;;;;;13.03;67.73;99980.41;5078939;28;20352;-63
2024/01/05 08:49:07;;;;;;;5.57;3.15;;;;;;;13.21;66.74;99969.56;5080214;28;20024;-63
2024/01/05 08:51:32;;;;;;;6.80;3.08;;;;;;;13.33;65.72;99948.72;5077375;28;20109;-64
2024/01/05 08:54:01;;;;;;;8.57;3.88;;;;;;;13.45;66.06;99962.47;5080022;28;20037;-63
2024/01/05 08:56:27;;;;;;;8.32;3.30;;;;;;;13.50;65.47;99962.75;5076875;28;20314;-63
2024/01/05 08:58:52;;;;;;;6.07;3.78;;;;;;;13.52;65.63;99969.56;5078963;28;20048;-63
2024/01/05 09:01:18;;;;;;;9.52;4.75;;;;;;;13.59;64.71;99964.41;5078022;28;20048;-64
2024/01/05 09:03:43;;;;;;;8.30;4.20;;;;;;;13.64;63.64;99962.03;5079912;28;20103;-65
2024/01/05 09:06:09;;;;;;;11.43;5.00;;;;;;;13.67;64.22;99964.34;5079043;28;20037;-63
2024/01/05 09:08:35;;;;;;;7.90;4.95;;;;;;;13.71;64.25;99957.66;5078481;28;20258;-63
2024/01/05 09:11:00;;;;;;;6.85;4.25;;;;;;;13.75;62.98;99958.97;5076026;28;20099;-63
2024/01/05 09:13:26;;;;;;;11.30;4.35;;;;;;;13.79;63.62;99951.47;5077903;28;20068;-65
2024/01/05 09:15:52;;;;;;;6.88;4.22;;;;;;;13.77;61.60;99954.28;5077060;28;20041;-64
2024/01/05 09:18:17;;;;;;;7.78;3.70;;;;;;;13.85;61.46;99950.75;5077920;28;20036;-63
2024/01/05 09:20:43;;;;;;;7.13;4.15;;;;;;;13.90;62.54;99945.72;5075895;28;20058;-63
2024/01/05 09:23:08;;;;;;;9.88;4.35;;;;;;;13.89;62.55;99944.06;5076672;28;20044;-63
2024/01/05 09:25:34;;;;;;;8.27;3.40;;;;;;;13.88;62.32;99942.41;5068587;28;20048;-63
2024/01/05 09:28:00;;;;;;;4.85;3.00;;;;;;;13.85;61.40;99945.44;5070329;28;20036;-63
2024/01/05 09:30:26;;;;;;;6.55;3.05;;;;;;;13.87;60.90;99949.56;5077983;28;20024;-63
2024/01/05 09:32:52;;;;;;;13.43;3.83;;;;;;;13.90;61.55;99946.53;5075083;28;20043;-63
2024/01/05 09:35:18;;;;;;;8.88;4.05;;;;;;;13.92;61.98;99941.88;5077811;28;20108;-65
2024/01/05 09:37:43;;;;;;;6.00;3.55;;;;;;;14.02;62.35;99941.63;5075319;28;20032;-63
2024/01/05 09:40:10;;;;;;;6.78;2.70;;;;;;;13.89;62.03;99934.25;5075905;28;20048;-63
2024/01/05 09:42:48;;;;;;;5.60;3.10;;;;;;;13.95;61.30;99938.84;5076868;28;20064;-63
2024/01/05 09:45:15;;;;;;;7.22;3.25;;;;;;;14.03;59.51;99936.13;5076215;28;20040;-63
2024/01/05 09:47:42;;;;;;;6.13;3.40;;;;;;;14.06;59.46;99929.59;5077433;28;20073;-63
2024/01/05 09:50:11;;;;;;;5.10;2.75;;;;;;;13.82;60.23;99927.97;5077058;28;20040;-63
2024/01/05 09:52:37;;;;;;;5.70;3.08;;;;;;;13.76;60.38;99925.19;5078543;28;20036;-63
2024/01/05 09:55:03;;;;;;;5.90;2.80;;;;;;;13.84;60.70;99917.16;5077388;28;20040;-65
2024/01/05 09:57:30;;;;;;;5.78;2.58;;;;;;;13.83;59.25;99918.97;5077622;28;20036;-64
2024/01/05 09:59:56;;;;;;;4.78;2.72;;;;;;;13.84;59.43;99899.34;5076380;28;20354;-63
2024/01/05 10:02:31;;;;;;;4.32;2.60;;;;;;;13.96;58.93;99900.56;5077400;28;20040;-64
2024/01/05 10:04:57;;;;;;;8.80;3.80;;;;;;;14.01;59.36;99892.88;5077443;28;20044;-63
2024/01/05 10:07:22;;;;;;;5.90;2.97;;;;;;;14.06;59.35;99895.00;5078048;28;20254;-62
2024/01/05 10:09:55;;;;;;;5.70;3.05;;;;;;;14.07;58.49;99883.34;5076952;28;20419;-63
2024/01/05 10:12:20;;;;;;;4.28;2.92;;;;;;;14.10;58.92;99879.47;5077599;28;20266;-63
2024/01/05 10:14:49;;;;;;;3.67;2.42;;;;;;;14.07;61.50;99876.19;5077427;28;20063;-63
2024/01/05 10:17:18;;;;;;;5.20;3.17;;;;;;;14.10;58.95;99866.16;5077146;28;20090;-64
2024/01/05 10:19:44;;;;;;;8.48;3.25;;;;;;;14.09;59.96;99861.84;5077492;28;20107;-63
2024/01/05 10:22:14;;;;;;;12.63;2.13;;;;;;;14.13;58.17;99855.16;5077283;28;20036;-64
2024/01/05 10:24:41;;;;;;;2.67;1.52;;;;;;;14.21;58.48;99852.41;5076344;28;20038;-65
2024/01/05 10:27:09;;;;;;;2.35;1.55;;;;;;;14.22;58.58;99846.06;5076666;28;20044;-64
2024/01/05 10:29:37;;;;;;;4.60;1.63;;;;;;;14.22;60.61;99835.41;5077690;28;20028;-63
2024/01/05 10:32:16;;;;;;;2.53;1.63;;;;;;;14.25;60.14;99838.53;5076400;28;20253;-62
2024/01/05 10:34:43;;;;;;;2.83;1.60;;;;;;;14.25;61.80;99838.53;5078134;28;20070;-63
2024/01/05 10:37:09;;;;;;;4.22;1.95;;;;;;;14.30;62.34;99835.31;5075622;28;20037;-63
2024/01/05 10:39:35;;;;;;;2.30;1.52;;;;;;;14.30;59.44;99828.16;5077443;28;20032;-63
2024/01/05 10:42:25;;;;;;;2.83;1.50;;;;;;;14.31;57.17;99813.84;5075994;28;20062;-63
2024/01/05 10:44:52;;;;;;;3.20;1.40;;;;;;;14.32;54.75;99812.00;5076900;28;20044;-66
2024/01/05 10:47:23;;;;;;;2.78;1.30;;;;;;;14.36;57.36;99810.63;5075026;28;20032;-65
2024/01/05 10:49:51;;;;;;;3.65;1.45;;;;;;;14.40;57.74;99811.91;5077018;28;20259;-64
2024/01/05 10:52:18;;;;;;;1.95;1.23;;;;;;;14.42;56.77;99817.91;5075035;28;20356;-63
2024/01/05 10:54:48;;;;;;;3.65;1.70;;;;;;;14.45;54.79;99822.03;5076476;28;20033;-64
2024/01/05 10:57:15;;;;;;;4.40;1.45;;;;;;;14.46;58.87;99816.53;5074205;28;20044;-64
2024/01/05 10:59:53;;;;;;;2.83;1.50;;;;;;;14.52;55.88;99820.28;5075477;28;20099;-63
2024/01/05 11:02:20;;;;;;;2.97;2.22;;;;;;;14.54;56.84;99820.91;5074692;28;20075;-63
2024/01/05 11:04:54;;;;;;;4.03;1.65;;;;;;;14.57;58.68;99809.91;5076956;28;20036;-63
2024/01/05 11:07:23;;;;;;;3.28;1.42;;;;;;;14.59;57.83;99813.22;5075706;28;20040;-64
2024/01/05 11:10:14;;;;;;;2.75;1.75;;;;;;;14.62;55.63;99802.19;5075972;28;20036;-63
2024/01/05 11:13:09;;;;;;;4.00;2.00;;;;;;;14.63;59.28;99786.03;5070066;28;20044;-64
2024/01/05 11:15:43;;;;;;;1.88;1.20;;;;;;;14.66;54.42;99790.97;5077114;28;20514;-65
2024/01/05 11:18:21;;;;;;;5.00;1.20;;;;;;;14.67;52.01;99792.63;5076038;28;20029;-63
2024/01/05 11:21:11;;;;;;;2.80;1.52;;;;;;;14.69;53.54;99792.44;5075806;28;20048;-63
2024/01/05 11:23:40;;;;;;;3.70;1.60;;;;;;;14.68;52.09;99804.94;5075392;28;20062;-64
2024/01/05 11:26:06;;;;;;;2.00;1.00;;;;;;;14.67;47.57;99783.81;5076815;28;20040;-64
2024/01/05 11:28:35;;;;;;;3.25;0.90;;;;;;;14.73;49.22;99792.88;5076061;28;20305;-66
2024/01/05 11:31:01;;;;;;;1.25;0.75;;;;;;;14.78;47.65;99795.81;5076381;28;20329;-63
2024/01/05 11:33:49;;;;;;;1.58;0.93;;;;;;;14.84;46.39;99792.41;5075149;28;20024;-63